createdAt,value
2018-04-17T00:02:38.591Z,73.20
2018-04-17T00:07:41.131Z,73.36
2018-04-17T00:12:43.662Z,73.44
2018-04-17T00:17:47.610Z,73.10
2018-04-17T00:22:50.233Z,72.57
2018-04-17T00:27:52.715Z,72.77
2018-04-17T00:32:57.186Z,72.62
2018-04-17T00:37:59.697Z,73.08
2018-04-17T00:43:02.203Z,73.40
2018-04-17T00:48:06.225Z,73.29
2018-04-17T00:53:23.223Z,73.12
2018-04-17T00:58:25.724Z,73.38
2018-04-17T01:03:28.244Z,73.63
2018-04-17T01:08:30.756Z,73.31
2018-04-17T01:13:33.225Z,73.26
2018-04-17T01:18:43.069Z,73.25
2018-04-17T01:23:45.795Z,73.21
2018-04-17T01:28:48.305Z,73.11
2018-04-17T01:33:51.300Z,73.36
2018-04-17T01:38:53.855Z,73.71
2018-04-17T01:43:56.389Z,73.91
2018-04-17T01:48:58.866Z,74.01
2018-04-17T01:54:01.360Z,74.09
2018-04-17T01:59:04.094Z,74.46
2018-04-17T02:04:06.623Z,74.82
2018-04-17T02:09:09.341Z,74.85
2018-04-17T02:14:11.842Z,75.24
2018-04-17T02:19:14.329Z,75.60
2018-04-17T02:24:16.927Z,75.91
2018-04-17T02:29:19.428Z,75.92
2018-04-17T02:34:21.926Z,76.31
2018-04-17T02:39:24.429Z,76.25
2018-04-17T02:44:27.010Z,76.07
2018-04-17T02:49:29.464Z,76.00
2018-04-17T02:54:31.943Z,76.02
2018-04-17T02:59:34.664Z,76.01
2018-04-17T03:04:37.342Z,76.07
2018-04-17T03:09:39.973Z,76.06
2018-04-17T03:14:47.746Z,76.21
2018-04-17T03:19:52.578Z,76.09
2018-04-17T03:24:55.089Z,76.10
2018-04-17T03:29:57.586Z,76.14
2018-04-17T03:35:00.197Z,76.17
2018-04-17T03:40:02.700Z,76.17
2018-04-17T03:45:06.465Z,76.34
2018-04-17T03:50:09.051Z,76.35
2018-04-17T03:55:11.633Z,76.37
2018-04-17T04:00:14.414Z,76.29
2018-04-17T04:05:16.903Z,76.12
2018-04-17T04:10:19.351Z,76.21
2018-04-17T04:15:21.846Z,76.26
2018-04-17T04:20:36.653Z,76.38
2018-04-17T04:25:54.892Z,76.56
2018-04-17T04:31:01.341Z,76.64
2018-04-17T04:36:06.588Z,76.81
2018-04-17T04:41:09.135Z,76.82
2018-04-17T04:46:12.278Z,76.87
2018-04-17T04:51:14.743Z,76.92
2018-04-17T04:56:17.210Z,77.02
2018-04-17T05:01:19.800Z,76.95
2018-04-17T05:06:22.468Z,76.90
2018-04-17T05:11:24.948Z,76.97
2018-04-17T05:16:27.417Z,76.94
2018-04-17T05:21:29.902Z,77.12
2018-04-17T05:26:32.391Z,76.62
2018-04-17T05:31:34.986Z,76.27
2018-04-17T05:36:37.521Z,75.29
2018-04-17T05:41:40.027Z,75.70
2018-04-17T05:46:42.503Z,75.45
2018-04-17T05:51:44.981Z,74.87
2018-04-17T05:56:47.460Z,74.33
2018-04-17T06:01:49.958Z,73.11
2018-04-17T06:06:52.651Z,72.26
2018-04-17T06:11:55.141Z,70.08
2018-04-17T06:16:57.717Z,70.51
2018-04-17T06:22:00.397Z,69.63
2018-04-17T06:27:02.874Z,66.72
2018-04-17T06:32:05.566Z,65.80
2018-04-17T06:37:08.085Z,65.73
2018-04-17T06:42:10.772Z,64.40
2018-04-17T06:47:13.233Z,64.24
2018-04-17T06:52:15.728Z,63.00
2018-04-17T06:57:18.205Z,60.92
2018-04-17T07:02:20.687Z,58.71
2018-04-17T07:07:23.166Z,59.23
2018-04-17T07:12:25.641Z,58.33
2018-04-17T07:17:28.237Z,58.17
2018-04-17T07:22:30.796Z,56.98
2018-04-17T07:27:33.637Z,57.91
2018-04-17T07:32:36.143Z,58.10
2018-04-17T07:37:38.628Z,58.27
2018-04-17T07:42:41.126Z,56.91
2018-04-17T07:53:22.754Z,56.25
2018-04-17T07:58:25.224Z,55.68
2018-04-17T08:03:27.726Z,55.70
2018-04-17T08:08:30.202Z,52.46
2018-04-17T08:13:32.678Z,53.34
2018-04-17T08:18:35.171Z,49.68
2018-04-17T08:23:37.821Z,47.98
2018-04-17T08:28:40.288Z,49.57
2018-04-17T08:33:42.771Z,50.17
2018-04-17T08:38:45.248Z,47.18
2018-04-17T08:43:47.700Z,45.20
2018-04-17T08:48:50.235Z,43.34
2018-04-17T08:53:52.679Z,43.21
2018-04-17T08:58:55.162Z,41.93
2018-04-17T09:03:57.618Z,42.63
2018-04-17T09:09:00.119Z,41.46
2018-04-17T09:14:02.591Z,35.14
2018-04-17T09:19:05.055Z,32.40
2018-04-17T09:24:07.529Z,30.69
2018-04-17T09:29:09.994Z,29.83
2018-04-17T09:34:12.526Z,30.81
2018-04-17T09:39:15.106Z,27.55
2018-04-17T09:44:17.651Z,28.41
2018-04-17T09:49:20.104Z,29.65
2018-04-17T09:54:22.569Z,28.79
2018-04-17T09:59:25.066Z,29.85
2018-04-17T10:04:27.557Z,29.01
2018-04-17T10:09:30.067Z,30.08
2018-04-17T10:14:32.551Z,27.74
2018-04-17T10:19:35.016Z,27.49
2018-04-17T10:24:37.562Z,29.75
2018-04-17T10:29:40.036Z,31.26
2018-04-17T10:34:42.520Z,30.18
2018-04-17T10:39:44.991Z,31.16
2018-04-17T10:44:47.468Z,30.57
2018-04-17T10:49:49.930Z,31.39
2018-04-17T10:54:52.432Z,30.92
2018-04-17T10:59:54.893Z,30.66
2018-04-17T11:04:57.394Z,31.50
2018-04-17T11:09:59.860Z,30.96
2018-04-17T11:15:02.351Z,31.44
2018-04-17T11:20:04.822Z,34.71
2018-04-17T11:25:07.431Z,32.96
2018-04-17T11:30:09.883Z,33.56
2018-04-17T11:35:12.349Z,33.29
2018-04-17T11:40:14.817Z,34.38
2018-04-17T11:45:17.304Z,34.05
2018-04-17T11:50:19.766Z,32.65
2018-04-17T11:55:22.262Z,33.59
2018-04-17T12:00:24.820Z,33.22
2018-04-17T12:05:27.321Z,31.81
2018-04-17T12:10:29.797Z,30.79
2018-04-17T12:15:32.292Z,30.68
2018-04-17T12:20:34.764Z,31.99
2018-04-17T12:25:37.233Z,32.90
2018-04-17T12:30:39.719Z,34.61
2018-04-17T12:35:42.271Z,32.86
2018-04-17T12:40:44.811Z,34.72
2018-04-17T12:45:47.276Z,34.85
2018-04-17T12:50:49.758Z,32.09
2018-04-17T12:55:52.307Z,30.74
2018-04-17T13:00:54.837Z,29.96
2018-04-17T13:05:57.326Z,29.66
2018-04-17T13:10:59.778Z,32.77
2018-04-17T13:16:02.248Z,31.66
2018-04-17T13:21:04.752Z,30.13
2018-04-17T13:26:07.269Z,30.78
2018-04-17T13:31:09.752Z,30.46
2018-04-17T13:36:12.247Z,29.80
2018-04-17T13:41:14.719Z,27.96
2018-04-17T13:46:17.215Z,29.33
2018-04-17T13:51:19.792Z,29.07
2018-04-17T13:56:22.284Z,30.80
2018-04-17T14:01:24.753Z,29.78
2018-04-17T14:06:27.199Z,29.55
2018-04-17T14:11:29.659Z,30.26
2018-04-17T14:16:32.118Z,29.68
2018-04-17T14:21:34.594Z,28.41
2018-04-17T14:26:37.089Z,27.65
2018-04-17T14:31:39.575Z,28.16
2018-04-17T14:36:42.046Z,29.12
2018-04-17T14:41:44.527Z,28.34
2018-04-17T14:46:47.015Z,28.14
2018-04-17T14:51:49.486Z,29.82
2018-04-17T14:56:51.932Z,29.33
2018-04-17T15:01:54.501Z,28.60
2018-04-17T15:06:56.958Z,29.41
2018-04-17T15:11:59.421Z,28.90
2018-04-17T15:17:01.906Z,28.53
2018-04-17T15:22:04.462Z,28.31
2018-04-17T15:27:06.942Z,28.71
2018-04-17T15:32:09.450Z,29.06
2018-04-17T15:37:11.958Z,29.82
2018-04-17T15:42:14.451Z,28.98
2018-04-17T15:47:16.930Z,28.50
2018-04-17T15:52:19.406Z,29.28
2018-04-17T15:57:21.878Z,30.42
2018-04-17T16:02:24.324Z,30.83
2018-04-17T16:07:26.817Z,30.80
2018-04-17T16:12:29.307Z,30.76
2018-04-17T16:17:31.777Z,31.02
2018-04-17T16:22:34.289Z,30.66
2018-04-17T16:27:36.837Z,31.00
2018-04-17T16:32:39.329Z,31.22
2018-04-17T16:37:41.785Z,31.83
2018-04-17T16:42:44.292Z,31.19
2018-04-17T16:47:46.752Z,32.31
2018-04-17T16:52:49.240Z,31.74
2018-04-17T16:57:51.779Z,32.32
2018-04-17T17:02:54.240Z,32.10
2018-04-17T17:07:56.730Z,31.73
2018-04-17T17:12:59.215Z,33.07
2018-04-17T17:18:01.690Z,34.02
2018-04-17T17:28:30.008Z,36.43
2018-04-17T17:33:32.508Z,37.66
2018-04-17T17:38:34.994Z,38.42
2018-04-17T17:43:37.530Z,38.96
2018-04-17T17:48:40.967Z,39.66
2018-04-17T17:53:43.443Z,39.91
2018-04-17T17:58:45.986Z,40.31
2018-04-17T18:03:48.485Z,40.92
2018-04-17T18:08:51.020Z,41.81
2018-04-17T18:13:53.508Z,42.70
2018-04-17T18:18:57.126Z,44.79
2018-04-17T18:24:04.730Z,46.92
2018-04-17T18:29:07.243Z,48.45
2018-04-17T18:34:09.792Z,49.33
2018-04-17T18:39:12.266Z,50.99
2018-04-17T18:44:17.029Z,51.27
2018-04-17T18:49:19.500Z,51.88
2018-04-17T18:54:21.976Z,53.30
2018-04-17T18:59:24.433Z,53.76
2018-04-17T19:04:26.885Z,54.34
2018-04-17T19:09:29.370Z,54.97
2018-04-17T19:14:33.662Z,55.50
2018-04-17T19:19:38.821Z,56.46
2018-04-17T19:24:42.514Z,57.17
2018-04-17T19:29:46.705Z,57.47
2018-04-17T19:34:49.273Z,58.18
2018-04-17T19:39:51.924Z,58.45
2018-04-17T19:44:54.444Z,58.85
2018-04-17T19:49:57.307Z,59.44
2018-04-17T19:54:59.968Z,59.72
2018-04-17T20:00:02.546Z,60.39
2018-04-17T20:05:05.242Z,60.58
2018-04-17T20:10:10.049Z,60.98
2018-04-17T20:15:17.425Z,61.50
2018-04-17T20:20:20.163Z,61.99
2018-04-17T20:25:23.067Z,62.11
2018-04-17T20:30:25.735Z,62.58
2018-04-17T20:35:29.567Z,63.17
2018-04-17T20:40:32.110Z,63.41
2018-04-17T20:45:34.596Z,63.79
2018-04-17T20:50:37.625Z,64.46
2018-04-17T20:55:40.170Z,64.51
2018-04-17T21:00:42.680Z,64.71
2018-04-17T21:05:45.370Z,65.10
2018-04-17T21:10:47.909Z,65.66
2018-04-17T21:15:50.699Z,65.58
2018-04-17T21:20:53.242Z,66.23
2018-04-17T21:25:56.856Z,66.57
2018-04-17T21:30:59.355Z,66.78
2018-04-17T21:36:01.849Z,67.33
2018-04-17T21:41:04.677Z,67.51
2018-04-17T21:46:07.264Z,67.91
2018-04-17T21:56:52.715Z,68.14
2018-04-17T22:07:42.436Z,68.03
2018-04-17T22:19:04.535Z,68.82
2018-04-17T22:24:32.055Z,69.19
2018-04-17T22:29:51.643Z,69.14
2018-04-17T22:34:55.351Z,69.66
2018-04-17T22:39:57.857Z,70.08
2018-04-17T22:45:17.413Z,69.85
2018-04-17T22:50:20.427Z,69.92
2018-04-17T22:55:22.898Z,70.25
2018-04-17T23:00:25.365Z,70.40
2018-04-17T23:05:27.831Z,70.65
2018-04-17T23:10:30.299Z,70.77
2018-04-17T23:15:32.762Z,71.18
2018-04-17T23:20:35.322Z,71.76
2018-04-17T23:25:37.851Z,71.81
2018-04-17T23:30:40.423Z,71.78
2018-04-17T23:35:42.945Z,71.82
2018-04-17T23:40:46.591Z,71.75
2018-04-17T23:45:49.170Z,72.03
2018-04-17T23:50:51.626Z,72.20
2018-04-17T23:55:54.096Z,72.69
